createdAt,value
2019-05-14T00:00:24.894Z,3.30
2019-05-14T00:02:53.303Z,5.23
2019-05-14T00:05:21.636Z,2.73
2019-05-14T00:07:52.140Z,3.00
2019-05-14T00:10:21.812Z,2.27
2019-05-14T00:12:51.283Z,4.23
2019-05-14T00:15:21.682Z,1.57
2019-05-14T00:17:52.043Z,1.73
2019-05-14T00:20:22.423Z,5.80
2019-05-14T00:22:52.035Z,12.63
2019-05-14T00:25:19.308Z,12.17
2019-05-14T00:27:47.126Z,9.30
2019-05-14T00:30:15.441Z,10.65
2019-05-14T00:32:43.244Z,5.40
2019-05-14T00:35:11.516Z,3.13
2019-05-14T00:37:41.286Z,3.83
2019-05-14T00:40:11.588Z,1.80
2019-05-14T00:42:41.132Z,0.93
2019-05-14T00:45:11.527Z,2.07
2019-05-14T00:47:41.577Z,1.90
2019-05-14T00:50:11.118Z,2.50
2019-05-14T00:52:38.836Z,1.50
2019-05-14T00:55:07.809Z,1.83
2019-05-14T00:57:35.964Z,2.67
2019-05-14T01:00:04.186Z,1.13
2019-05-14T01:02:32.115Z,4.73
2019-05-14T01:05:01.825Z,2.90
2019-05-14T01:07:31.613Z,1.17
2019-05-14T01:10:01.284Z,1.27
2019-05-14T01:12:29.220Z,2.07
2019-05-14T01:15:07.799Z,1.47
2019-05-14T01:17:26.750Z,1.53
2019-05-14T01:19:54.632Z,1.97
2019-05-14T01:22:22.750Z,2.23
2019-05-14T01:24:52.180Z,2.30
2019-05-14T01:27:21.141Z,3.13
2019-05-14T01:29:51.202Z,5.80
2019-05-14T01:32:21.929Z,0.87
2019-05-14T01:34:51.977Z,6.47
2019-05-14T01:37:21.849Z,3.30
2019-05-14T01:39:52.012Z,1.40
2019-05-14T01:42:21.589Z,3.07
2019-05-14T01:44:51.697Z,5.03
2019-05-14T01:47:21.355Z,5.00
2019-05-14T01:49:51.521Z,3.57
2019-05-14T01:52:21.600Z,2.17
2019-05-14T01:54:51.316Z,2.63
2019-05-14T01:57:19.099Z,2.53
2019-05-14T01:59:47.247Z,2.15
2019-05-14T02:02:15.154Z,3.97
2019-05-14T02:04:43.317Z,4.33
2019-05-14T02:07:11.818Z,2.93
2019-05-14T02:09:42.050Z,7.03
2019-05-14T02:12:11.767Z,2.73
2019-05-14T02:14:42.139Z,3.00
2019-05-14T02:17:09.290Z,7.27
2019-05-14T02:19:37.563Z,5.07
2019-05-14T02:22:05.812Z,3.10
2019-05-14T02:24:34.025Z,2.90
2019-05-14T02:27:02.010Z,2.27
2019-05-14T02:29:31.977Z,5.43
2019-05-14T02:32:00.060Z,3.37
2019-05-14T02:34:29.965Z,2.30
2019-05-14T02:37:00.440Z,3.23
2019-05-14T02:39:29.234Z,2.10
2019-05-14T02:41:58.966Z,4.50
2019-05-14T02:44:29.887Z,4.73
2019-05-14T02:46:59.259Z,3.63
2019-05-14T02:49:29.693Z,3.10
2019-05-14T02:51:59.094Z,4.07
2019-05-14T02:54:29.667Z,3.57
2019-05-14T02:56:59.881Z,5.50
2019-05-14T02:59:30.631Z,3.90
2019-05-14T03:01:59.147Z,1.90
2019-05-14T03:04:30.019Z,4.37
2019-05-14T03:06:59.227Z,3.20
2019-05-14T03:09:29.428Z,8.87
2019-05-14T03:11:59.503Z,5.23
2019-05-14T03:14:30.157Z,4.47
2019-05-14T03:16:59.481Z,3.10
2019-05-14T03:19:29.766Z,3.63
2019-05-14T03:22:00.264Z,4.80
2019-05-14T03:24:28.936Z,2.47
2019-05-14T03:26:58.695Z,5.03
2019-05-14T03:29:30.408Z,2.83
2019-05-14T03:32:02.555Z,3.92
2019-05-14T03:34:32.353Z,3.97
2019-05-14T03:37:03.017Z,3.47
2019-05-14T03:39:29.531Z,3.87
2019-05-14T03:41:59.086Z,6.83
2019-05-14T03:44:29.194Z,5.83
2019-05-14T03:47:03.932Z,2.40
2019-05-14T03:49:28.818Z,3.47
2019-05-14T03:52:00.411Z,5.17
2019-05-14T03:54:29.814Z,4.20
2019-05-14T03:57:00.381Z,6.00
2019-05-14T03:59:29.325Z,4.67
2019-05-14T04:01:59.899Z,3.27
2019-05-14T04:04:29.881Z,4.30
2019-05-14T04:07:01.619Z,2.73
2019-05-14T04:09:33.788Z,7.63
2019-05-14T04:12:09.730Z,7.03
2019-05-14T04:14:41.286Z,6.70
2019-05-14T04:17:15.867Z,2.73
2019-05-14T04:19:49.851Z,3.77
2019-05-14T04:22:29.862Z,8.60
2019-05-14T04:25:10.562Z,6.60
2019-05-14T04:27:45.435Z,3.87
2019-05-14T04:30:24.056Z,4.40
2019-05-14T04:33:10.374Z,6.97
2019-05-14T04:35:42.107Z,6.20
2019-05-14T04:38:11.674Z,4.23
2019-05-14T04:40:40.079Z,6.57
2019-05-14T04:43:11.231Z,2.67
2019-05-14T04:45:40.275Z,6.13
2019-05-14T04:48:27.116Z,3.47
2019-05-14T04:50:40.664Z,7.07
2019-05-14T04:53:10.092Z,6.50
2019-05-14T04:55:40.103Z,4.03
2019-05-14T04:58:10.047Z,4.83
2019-05-14T05:00:39.110Z,4.83
2019-05-14T05:03:11.760Z,6.60
2019-05-14T05:05:39.397Z,6.30
2019-05-14T05:08:09.068Z,3.13
2019-05-14T05:10:36.262Z,3.90
2019-05-14T05:13:04.266Z,8.67
2019-05-14T05:15:32.160Z,7.00
2019-05-14T05:18:00.489Z,3.97
2019-05-14T05:20:29.349Z,9.10
2019-05-14T05:22:59.072Z,11.37
2019-05-14T05:25:29.093Z,3.50
2019-05-14T05:27:59.663Z,5.60
2019-05-14T05:30:26.525Z,4.93
2019-05-14T05:32:54.722Z,7.00
2019-05-14T05:35:22.629Z,6.45
2019-05-14T05:37:50.486Z,4.40
2019-05-14T05:40:19.730Z,4.60
2019-05-14T05:42:49.028Z,4.80
2019-05-14T05:45:18.600Z,5.47
2019-05-14T05:47:55.240Z,4.37
2019-05-14T05:50:19.132Z,4.97
2019-05-14T05:52:49.139Z,4.20
2019-05-14T05:55:18.982Z,5.80
2019-05-14T05:57:46.381Z,5.83
2019-05-14T06:00:19.287Z,7.07
2019-05-14T06:02:48.952Z,7.47
2019-05-14T06:05:18.674Z,7.07
2019-05-14T06:07:48.263Z,6.73
2019-05-14T06:10:18.740Z,9.53
2019-05-14T06:12:49.112Z,4.37
2019-05-14T06:15:19.246Z,6.00
2019-05-14T06:17:49.049Z,7.97
2019-05-14T06:20:18.790Z,2.80
2019-05-14T06:22:46.039Z,6.87
2019-05-14T06:25:13.637Z,4.37
2019-05-14T06:27:41.233Z,3.53
2019-05-14T06:30:09.456Z,5.63
2019-05-14T06:32:38.640Z,3.07
2019-05-14T06:35:08.790Z,5.23
2019-05-14T06:37:38.478Z,5.97
2019-05-14T06:40:08.823Z,2.43
2019-05-14T06:42:39.180Z,3.27
2019-05-14T06:45:08.831Z,6.80
2019-05-14T06:47:38.274Z,4.37
2019-05-14T06:50:08.300Z,4.87
2019-05-14T06:52:35.472Z,4.87
2019-05-14T06:55:03.180Z,3.60
2019-05-14T06:57:30.781Z,2.60
2019-05-14T06:59:58.875Z,4.23
2019-05-14T07:02:28.505Z,2.00
2019-05-14T07:04:55.987Z,4.27
2019-05-14T07:07:23.589Z,4.03
2019-05-14T07:09:51.575Z,2.17
2019-05-14T07:12:19.508Z,3.83
2019-05-14T07:14:48.196Z,4.70
2019-05-14T07:17:18.331Z,8.30
2019-05-14T07:19:46.043Z,3.23
2019-05-14T07:22:13.611Z,13.17
2019-05-14T07:24:41.518Z,2.93
2019-05-14T07:27:09.603Z,4.67
2019-05-14T07:29:38.800Z,7.37
2019-05-14T07:32:09.003Z,3.60
2019-05-14T07:34:38.636Z,1.77
2019-05-14T07:37:05.951Z,4.03
2019-05-14T07:39:33.555Z,4.53
2019-05-14T07:42:02.411Z,2.30
2019-05-14T07:44:30.454Z,4.73
2019-05-14T07:46:58.981Z,1.97
2019-05-14T07:49:28.878Z,3.57
2019-05-14T07:51:58.585Z,3.10
2019-05-14T07:54:28.158Z,3.50
2019-05-14T07:56:55.386Z,1.63
2019-05-14T07:59:23.129Z,4.83
2019-05-14T08:01:51.544Z,5.10
2019-05-14T08:04:20.047Z,4.58
2019-05-14T08:06:48.730Z,2.37
2019-05-14T08:09:18.803Z,3.33
2019-05-14T08:11:48.073Z,3.10
2019-05-14T08:14:18.365Z,2.67
2019-05-14T08:16:45.484Z,3.52
2019-05-14T08:19:24.327Z,2.57
2019-05-14T08:21:43.206Z,1.82
2019-05-14T08:24:10.928Z,2.13
2019-05-14T08:26:42.993Z,2.30
2019-05-14T08:29:08.762Z,2.37
2019-05-14T08:31:38.313Z,4.30
2019-05-14T08:34:06.711Z,3.00
2019-05-14T08:36:37.799Z,1.47
2019-05-14T08:39:06.087Z,2.00
2019-05-14T08:41:34.119Z,1.85
2019-05-14T08:47:03.069Z,3.58
2019-05-14T08:49:41.883Z,3.37
2019-05-14T08:52:00.118Z,2.27
2019-05-14T08:54:28.446Z,2.37
2019-05-14T08:56:58.318Z,4.47
2019-05-14T08:59:25.585Z,2.55
2019-05-14T09:02:02.432Z,2.90
2019-05-14T09:04:23.094Z,5.47
2019-05-14T09:06:50.740Z,1.45
2019-05-14T09:09:20.307Z,2.98
2019-05-14T09:11:50.447Z,2.80
2019-05-14T09:14:18.847Z,1.20
2019-05-14T09:16:50.654Z,3.72
2019-05-14T09:19:16.165Z,2.30
2019-05-14T09:21:43.811Z,2.20
2019-05-14T09:24:11.390Z,1.62
2019-05-14T09:26:39.229Z,1.00
2019-05-14T09:29:19.384Z,1.57
2019-05-14T09:31:38.787Z,3.15
2019-05-14T09:34:08.497Z,1.43
2019-05-14T09:36:35.763Z,1.45
2019-05-14T09:39:05.503Z,1.65
2019-05-14T09:41:41.512Z,2.00
2019-05-14T09:44:09.466Z,1.80
2019-05-14T09:46:38.468Z,1.72
2019-05-14T09:49:08.016Z,3.45
2019-05-14T09:51:38.133Z,2.05
2019-05-14T09:54:05.545Z,1.95
2019-05-14T09:56:33.175Z,4.53
2019-05-14T09:59:00.767Z,3.45
2019-05-14T10:04:10.948Z,4.45
2019-05-14T10:06:39.349Z,2.37
2019-05-14T10:09:08.595Z,2.95
2019-05-14T10:11:38.209Z,1.40
2019-05-14T10:14:07.920Z,3.92
2019-05-14T10:16:35.347Z,3.98
2019-05-14T10:19:02.959Z,4.45
2019-05-14T10:21:30.544Z,6.08
2019-05-14T10:23:58.531Z,2.25
2019-05-14T10:26:28.700Z,2.25
2019-05-14T10:28:55.642Z,2.35
2019-05-14T10:31:24.030Z,2.95
2019-05-14T10:33:51.598Z,3.47
2019-05-14T10:36:19.579Z,3.30
2019-05-14T10:38:47.171Z,3.30
2019-05-14T10:41:14.865Z,3.42
2019-05-14T10:43:42.663Z,3.87
2019-05-14T10:46:10.251Z,3.87
2019-05-14T10:48:39.535Z,3.10
2019-05-14T10:51:09.645Z,2.40
2019-05-14T10:53:37.055Z,4.20
2019-05-14T10:56:04.447Z,3.60
2019-05-14T10:58:32.501Z,4.05
2019-05-14T11:01:01.099Z,3.65
2019-05-14T11:12:43.311Z,3.50
2019-05-14T11:15:11.150Z,3.47
2019-05-14T11:17:40.638Z,4.97
2019-05-14T11:20:08.573Z,3.72
2019-05-14T11:25:29.849Z,2.40
2019-05-14T11:27:58.638Z,2.92
2019-05-14T11:30:28.609Z,2.65
2019-05-14T11:32:58.214Z,2.58
2019-05-14T11:35:25.376Z,3.40
2019-05-14T11:37:53.233Z,4.58
2019-05-14T11:40:21.265Z,4.10
2019-05-14T11:42:49.531Z,2.50
2019-05-14T11:45:18.742Z,2.90
2019-05-14T11:47:48.696Z,6.17
2019-05-14T11:50:19.078Z,2.67
2019-05-14T11:52:48.268Z,2.30
2019-05-14T11:55:18.496Z,2.77
2019-05-14T11:57:45.355Z,4.12
2019-05-14T12:00:13.461Z,2.27
2019-05-14T12:02:41.440Z,4.20
2019-05-14T12:05:09.079Z,4.33
2019-05-14T12:07:38.636Z,3.58
2019-05-14T12:10:09.080Z,3.02
2019-05-14T12:12:37.085Z,3.52
2019-05-14T12:15:05.763Z,2.65
2019-05-14T12:17:33.295Z,2.37
2019-05-14T12:20:01.023Z,10.93
2019-05-14T12:22:28.819Z,3.95
2019-05-14T12:24:58.395Z,4.90
2019-05-14T12:27:25.829Z,6.95
2019-05-14T12:29:53.755Z,7.08
2019-05-14T12:32:21.325Z,2.42
2019-05-14T12:34:49.232Z,2.55
2019-05-14T12:37:18.585Z,3.97
2019-05-14T12:39:46.734Z,3.08
2019-05-14T12:42:14.317Z,3.27
2019-05-14T12:44:42.198Z,2.83
2019-05-14T12:47:11.072Z,2.12
2019-05-14T12:49:39.012Z,2.50
2019-05-14T12:52:21.028Z,5.83
2019-05-14T12:54:38.852Z,4.35
2019-05-14T12:57:05.970Z,3.87
2019-05-14T12:59:33.634Z,4.40
2019-05-14T13:02:01.502Z,4.08
2019-05-14T13:04:29.091Z,6.20
2019-05-14T13:06:59.521Z,2.60
2019-05-14T13:09:25.985Z,4.85
2019-05-14T13:11:53.954Z,3.87
2019-05-14T13:14:21.911Z,5.15
2019-05-14T13:16:49.552Z,3.37
2019-05-14T13:19:19.007Z,3.58
2019-05-14T13:21:50.558Z,3.70
2019-05-14T13:24:18.198Z,4.20
2019-05-14T13:26:46.185Z,4.58
2019-05-14T13:29:13.900Z,3.45
2019-05-14T13:31:41.673Z,7.58
2019-05-14T13:34:09.374Z,3.92
2019-05-14T13:36:39.728Z,4.53
2019-05-14T13:39:09.163Z,3.72
2019-05-14T13:41:41.537Z,3.37
2019-05-14T13:44:18.726Z,4.45
2019-05-14T13:46:35.782Z,3.95
2019-05-14T13:49:03.984Z,5.97
2019-05-14T13:51:33.533Z,3.72
2019-05-14T13:54:01.004Z,6.28
2019-05-14T13:56:28.670Z,2.92
2019-05-14T13:58:58.904Z,3.22
2019-05-14T14:01:26.104Z,6.00
2019-05-14T14:04:09.171Z,3.45
2019-05-14T14:06:23.450Z,3.53
2019-05-14T14:08:51.138Z,3.27
2019-05-14T14:11:19.425Z,3.77
2019-05-14T14:13:48.983Z,3.10
2019-05-14T14:16:19.190Z,3.67
2019-05-14T14:18:49.751Z,2.90
2019-05-14T14:21:15.882Z,2.58
2019-05-14T14:23:43.495Z,5.53
2019-05-14T14:26:11.129Z,6.15
2019-05-14T14:28:42.707Z,2.67
2019-05-14T14:31:11.126Z,6.80
2019-05-14T14:33:39.372Z,3.98
2019-05-14T14:36:07.506Z,2.22
2019-05-14T14:41:24.985Z,4.37
2019-05-14T14:46:42.692Z,4.05
2019-05-14T14:49:11.001Z,4.22
2019-05-14T14:51:44.517Z,3.42
2019-05-14T14:54:14.636Z,3.55
2019-05-14T14:56:38.027Z,2.75
2019-05-14T14:59:05.565Z,4.12
2019-05-14T15:01:33.180Z,6.00
2019-05-14T15:04:00.848Z,2.27
2019-05-14T15:06:30.558Z,3.47
2019-05-14T15:08:58.877Z,3.17
2019-05-14T15:11:29.607Z,4.70
2019-05-14T15:14:01.646Z,3.00
2019-05-14T15:16:29.750Z,9.95
2019-05-14T15:18:58.273Z,4.08
2019-05-14T15:21:26.022Z,2.77
2019-05-14T15:24:06.221Z,3.77
2019-05-14T15:26:23.596Z,5.72
2019-05-14T15:28:51.205Z,2.80
2019-05-14T15:31:19.226Z,5.15
2019-05-14T15:33:50.432Z,3.75
2019-05-14T15:36:19.405Z,3.02
2019-05-14T15:38:48.484Z,4.45
2019-05-14T15:41:15.487Z,3.80
2019-05-14T15:43:43.050Z,3.08
2019-05-14T15:46:26.199Z,7.20
2019-05-14T15:49:00.024Z,7.75
2019-05-14T15:54:58.695Z,3.17
2019-05-14T16:00:15.648Z,4.15
2019-05-14T16:02:45.604Z,3.67
2019-05-14T16:05:13.471Z,5.58
2019-05-14T16:07:43.881Z,4.95
2019-05-14T16:10:11.942Z,5.50
2019-05-14T16:12:40.203Z,2.87
2019-05-14T16:15:09.533Z,3.22
2019-05-14T16:17:48.351Z,3.27
2019-05-14T16:20:08.924Z,4.90
2019-05-14T16:22:39.967Z,6.08
2019-05-14T16:25:09.630Z,4.42
2019-05-14T16:27:39.518Z,3.42
2019-05-14T16:30:09.970Z,3.62
2019-05-14T16:32:39.428Z,2.92
2019-05-14T16:35:08.877Z,2.60
2019-05-14T16:37:43.517Z,5.37
2019-05-14T16:40:19.226Z,3.70
2019-05-14T16:42:54.826Z,4.42
2019-05-14T16:45:31.557Z,4.12
2019-05-14T16:48:05.773Z,2.22
2019-05-14T16:50:41.457Z,3.55
2019-05-14T16:53:16.004Z,3.10
2019-05-14T16:55:51.484Z,2.27
2019-05-14T16:58:25.703Z,2.67
2019-05-14T17:00:59.885Z,2.37
2019-05-14T17:03:34.498Z,5.12
2019-05-14T17:06:08.612Z,4.03
2019-05-14T17:08:43.699Z,2.22
2019-05-14T17:11:20.783Z,2.77
2019-05-14T17:13:58.008Z,3.12
2019-05-14T17:16:33.378Z,4.12
2019-05-14T17:19:09.279Z,2.72
2019-05-14T17:21:48.678Z,5.12
2019-05-14T17:24:25.018Z,4.78
2019-05-14T17:27:03.463Z,2.37
2019-05-14T17:29:39.537Z,4.22
2019-05-14T17:32:14.768Z,4.25
2019-05-14T17:34:55.066Z,2.83
2019-05-14T17:37:30.562Z,5.28
2019-05-14T17:40:05.274Z,3.08
2019-05-14T17:42:40.216Z,3.58
2019-05-14T17:45:15.223Z,5.08
2019-05-14T17:47:53.678Z,4.03
2019-05-14T17:50:29.850Z,6.05
2019-05-14T17:53:04.457Z,4.85
2019-05-14T17:55:46.595Z,3.42
2019-05-14T17:58:18.867Z,4.37
2019-05-14T18:00:58.134Z,3.77
2019-05-14T18:03:32.264Z,3.23
2019-05-14T18:06:09.262Z,4.75
2019-05-14T18:08:45.634Z,4.10
2019-05-14T18:11:23.922Z,4.42
2019-05-14T18:13:59.170Z,2.77
2019-05-14T18:16:33.888Z,3.22
2019-05-14T18:19:18.157Z,3.87
2019-05-14T18:21:52.734Z,2.10
2019-05-14T18:24:28.509Z,5.87
2019-05-14T18:27:03.658Z,5.22
2019-05-14T18:29:39.533Z,4.67
2019-05-14T18:32:15.638Z,2.47
2019-05-14T18:34:50.521Z,4.90
2019-05-14T18:37:25.613Z,3.00
2019-05-14T18:40:01.219Z,5.22
2019-05-14T18:42:39.075Z,7.10
2019-05-14T18:45:16.105Z,4.03
2019-05-14T18:47:53.235Z,4.83
2019-05-14T18:50:30.283Z,5.55
2019-05-14T18:53:09.047Z,4.58
2019-05-14T18:55:43.761Z,7.45
2019-05-14T18:58:19.549Z,4.72
2019-05-14T19:00:54.540Z,6.60
2019-05-14T19:03:31.359Z,3.62
2019-05-14T19:06:05.913Z,4.60
2019-05-14T19:08:40.603Z,3.90
2019-05-14T19:11:17.280Z,6.30
2019-05-14T19:13:52.208Z,5.17
2019-05-14T19:16:28.837Z,4.58
2019-05-14T19:19:03.449Z,7.12
2019-05-14T19:21:39.677Z,6.62
2019-05-14T19:24:15.635Z,8.40
2019-05-14T19:26:52.187Z,5.62
2019-05-14T19:29:28.143Z,7.33
2019-05-14T19:32:02.458Z,4.42
2019-05-14T19:34:38.269Z,9.53
2019-05-14T19:37:14.470Z,8.28
2019-05-14T19:39:50.267Z,4.30
2019-05-14T19:42:28.722Z,10.13
2019-05-14T19:45:08.464Z,7.50
2019-05-14T19:47:42.783Z,11.13
2019-05-14T19:50:18.708Z,8.30
2019-05-14T19:52:52.387Z,7.90
2019-05-14T19:55:32.479Z,8.37
2019-05-14T19:58:06.967Z,7.80
2019-05-14T20:00:42.149Z,6.30
2019-05-14T20:03:18.834Z,8.83
2019-05-14T20:05:54.309Z,8.07
2019-05-14T20:08:29.532Z,12.10
2019-05-14T20:11:05.398Z,10.47
2019-05-14T20:13:42.251Z,8.70
2019-05-14T20:16:18.572Z,13.45
2019-05-14T20:18:53.569Z,9.90
2019-05-14T20:21:29.421Z,12.67
2019-05-14T20:24:02.585Z,12.73
2019-05-14T20:26:38.959Z,8.20
2019-05-14T20:29:13.762Z,9.77
2019-05-14T20:31:50.751Z,9.03
2019-05-14T20:34:25.336Z,13.35
2019-05-14T20:36:59.773Z,6.63
2019-05-14T20:39:38.840Z,10.00
2019-05-14T20:42:13.915Z,9.57
2019-05-14T20:44:49.271Z,13.30
2019-05-14T20:47:32.879Z,16.00
2019-05-14T20:50:08.986Z,16.70
2019-05-14T20:52:43.335Z,8.83
2019-05-14T20:55:19.896Z,10.60
2019-05-14T20:57:55.384Z,6.87
2019-05-14T21:00:31.894Z,12.33
2019-05-14T21:03:08.787Z,11.83
2019-05-14T21:05:44.510Z,11.75
2019-05-14T21:08:19.052Z,9.63
2019-05-14T21:10:58.721Z,13.83
2019-05-14T21:13:39.046Z,14.77
2019-05-14T21:16:21.872Z,13.00
2019-05-14T21:19:01.884Z,12.53
2019-05-14T21:21:43.623Z,9.83
2019-05-14T21:24:29.274Z,9.73
2019-05-14T21:27:09.312Z,9.30
2019-05-14T21:29:49.018Z,7.37
2019-05-14T21:32:36.052Z,5.53
2019-05-14T21:35:13.796Z,7.57
2019-05-14T21:37:54.306Z,3.93
2019-05-14T21:40:34.628Z,4.50
2019-05-14T21:43:15.240Z,5.47
2019-05-14T21:45:54.998Z,7.47
2019-05-14T21:48:38.540Z,10.30
2019-05-14T21:51:20.140Z,6.10
2019-05-14T21:54:07.454Z,10.87
2019-05-14T21:56:50.345Z,12.47
2019-05-14T21:59:33.584Z,8.93
2019-05-14T22:02:26.924Z,7.70
2019-05-14T22:05:02.098Z,8.30
2019-05-14T22:07:40.099Z,12.07
2019-05-14T22:10:15.494Z,9.37
2019-05-14T22:12:50.170Z,8.70
2019-05-14T22:15:25.687Z,7.97
2019-05-14T22:17:59.971Z,9.47
2019-05-14T22:20:34.245Z,10.87
2019-05-14T22:23:09.907Z,12.50
2019-05-14T22:25:44.167Z,13.83
2019-05-14T22:28:19.057Z,13.00
2019-05-14T22:30:54.714Z,9.37
2019-05-14T22:33:29.210Z,6.60
2019-05-14T22:36:03.713Z,13.83
2019-05-14T22:38:48.478Z,12.07
2019-05-14T22:41:24.001Z,7.47
2019-05-14T22:43:59.952Z,9.33
2019-05-14T22:46:34.375Z,11.73
2019-05-14T22:49:10.623Z,20.63
2019-05-14T22:51:45.166Z,19.20
2019-05-14T22:54:20.922Z,17.50
2019-05-14T22:56:55.406Z,16.40
2019-05-14T22:59:29.705Z,17.00
2019-05-14T23:02:04.279Z,18.03
2019-05-14T23:04:39.651Z,13.73
2019-05-14T23:07:13.948Z,13.03
2019-05-14T23:09:48.534Z,13.53
2019-05-14T23:12:25.013Z,16.87
2019-05-14T23:15:01.603Z,15.93
2019-05-14T23:17:38.923Z,13.90
2019-05-14T23:20:13.947Z,14.20
2019-05-14T23:22:49.171Z,18.20
2019-05-14T23:25:25.991Z,11.27
2019-05-14T23:28:00.549Z,12.43
2019-05-14T23:30:38.981Z,13.93
2019-05-14T23:33:14.725Z,12.83
2019-05-14T23:35:51.366Z,15.93
2019-05-14T23:38:25.869Z,13.40
2019-05-14T23:41:03.117Z,13.53
2019-05-14T23:43:39.841Z,15.00
2019-05-14T23:46:18.332Z,13.70
2019-05-14T23:48:52.909Z,15.30
2019-05-14T23:51:29.004Z,15.80
2019-05-14T23:54:03.672Z,16.20
2019-05-14T23:56:38.455Z,12.63
2019-05-14T23:59:13.161Z,16.10
